createdAt,value
2018-11-29T00:00:12.654Z,23
2018-11-29T00:05:13.215Z,20
2018-11-29T00:10:13.768Z,25
2018-11-29T00:15:15.909Z,27
2018-11-29T00:20:13.584Z,25
2018-11-29T00:25:15.739Z,24
2018-11-29T00:30:13.859Z,24
2018-11-29T00:35:13.979Z,28
2018-11-29T00:40:13.020Z,31
2018-11-29T00:45:12.858Z,24
2018-11-29T00:50:12.920Z,32
2018-11-29T00:55:14.934Z,23
2018-11-29T01:00:14.565Z,23
2018-11-29T01:05:13.972Z,25
2018-11-29T01:10:15.158Z,28
2018-11-29T01:15:28.829Z,24
2018-11-29T01:20:13.464Z,28
2018-11-29T01:25:15.564Z,27
2018-11-29T01:30:14.222Z,27
2018-11-29T01:35:15.323Z,24
2018-11-29T01:40:14.295Z,27
2018-11-29T01:45:17.469Z,27
2018-11-29T01:50:13.640Z,25
2018-11-29T01:55:15.213Z,12
2018-11-29T02:00:13.636Z,25
2018-11-29T02:05:14.472Z,22
2018-11-29T02:10:13.540Z,22
2018-11-29T02:15:13.738Z,23
2018-11-29T02:20:13.567Z,28
2018-11-29T02:25:19.242Z,28
2018-11-29T02:30:14.018Z,18
2018-11-29T02:35:12.889Z,27
2018-11-29T02:40:13.554Z,24
2018-11-29T02:45:14.265Z,20
2018-11-29T02:50:14.362Z,20
2018-11-29T02:55:16.438Z,20
2018-11-29T03:00:15.278Z,20
2018-11-29T03:05:13.175Z,24
2018-11-29T03:10:13.791Z,23
2018-11-29T03:15:12.699Z,8
2018-11-29T03:20:13.708Z,23
2018-11-29T03:25:18.095Z,26
2018-11-29T03:30:12.805Z,23
2018-11-29T03:35:12.784Z,25
2018-11-29T03:40:13.183Z,18
2018-11-29T03:45:12.612Z,18
2018-11-29T03:50:13.161Z,23
2018-11-29T03:55:46.853Z,23
2018-11-29T04:00:14.857Z,23
2018-11-29T04:05:13.073Z,19
2018-11-29T04:10:12.859Z,19
2018-11-29T04:15:12.462Z,19
2018-11-29T04:20:12.567Z,23
2018-11-29T04:25:15.394Z,18
2018-11-29T04:30:12.686Z,19
2018-11-29T04:35:12.530Z,18
2018-11-29T04:40:12.502Z,18
2018-11-29T04:45:12.966Z,19
2018-11-29T04:50:12.991Z,18
2018-11-29T04:55:15.172Z,18
2018-11-29T05:00:14.597Z,19
2018-11-29T05:05:13.226Z,19
2018-11-29T05:10:12.965Z,16
2018-11-29T05:15:12.242Z,15
2018-11-29T05:20:12.701Z,11
2018-11-29T05:25:17.135Z,17
2018-11-29T05:30:13.564Z,17
2018-11-29T05:35:13.503Z,17
2018-11-29T05:40:13.000Z,14
2018-11-29T05:45:12.559Z,14
2018-11-29T05:50:13.025Z,12
2018-11-29T05:55:18.033Z,12
2018-11-29T06:00:12.704Z,12
2018-11-29T06:05:12.131Z,12
2018-11-29T06:10:12.684Z,13
2018-11-29T06:15:13.705Z,16
2018-11-29T06:20:13.103Z,14
2018-11-29T06:25:14.261Z,20
2018-11-29T06:30:12.455Z,17
2018-11-29T06:35:12.780Z,16
2018-11-29T06:40:12.752Z,15
2018-11-29T06:45:12.275Z,15
2018-11-29T06:50:12.282Z,17
2018-11-29T06:55:15.346Z,17
2018-11-29T07:00:13.210Z,18
2018-11-29T07:05:12.830Z,16
2018-11-29T07:10:13.433Z,16
2018-11-29T07:15:12.094Z,16
2018-11-29T07:20:14.143Z,13
2018-11-29T07:25:15.871Z,18
2018-11-29T07:30:12.294Z,18
2018-11-29T07:35:13.786Z,13
2018-11-29T07:40:15.359Z,11
2018-11-29T07:45:13.340Z,16
2018-11-29T07:50:12.236Z,16
2018-11-29T07:55:11.925Z,16
2018-11-29T08:00:12.606Z,15
2018-11-29T08:05:11.835Z,16
2018-11-29T08:10:12.433Z,16
2018-11-29T08:15:12.731Z,17
2018-11-29T08:20:11.937Z,14
2018-11-29T08:25:13.979Z,14
2018-11-29T08:30:12.179Z,14
2018-11-29T08:35:12.077Z,15
2018-11-29T08:40:12.165Z,15
2018-11-29T08:45:12.215Z,14
2018-11-29T08:50:12.223Z,14
2018-11-29T08:55:14.247Z,15
2018-11-29T09:00:13.406Z,16
2018-11-29T09:05:12.451Z,16
2018-11-29T09:10:17.329Z,12
2018-11-29T09:15:14.609Z,14
2018-11-29T09:20:12.392Z,17
2018-11-29T09:25:13.156Z,14
2018-11-29T09:30:13.175Z,14
2018-11-29T09:35:12.002Z,14
2018-11-29T09:40:12.394Z,14
2018-11-29T09:45:12.163Z,17
2018-11-29T09:50:12.001Z,13
2018-11-29T09:55:11.667Z,13
2018-11-29T10:00:12.511Z,13
2018-11-29T10:05:11.861Z,16
2018-11-29T10:10:12.031Z,14
2018-11-29T10:15:12.295Z,14
2018-11-29T10:20:11.709Z,12
2018-11-29T10:25:13.269Z,12
2018-11-29T10:30:12.060Z,12
2018-11-29T10:35:12.011Z,12
2018-11-29T10:40:12.277Z,13
2018-11-29T10:45:11.642Z,12
2018-11-29T10:50:12.080Z,12
2018-11-29T10:55:11.574Z,11
2018-11-29T11:00:12.394Z,11
2018-11-29T11:05:11.891Z,16
2018-11-29T11:10:12.059Z,10
2018-11-29T11:15:11.914Z,16
2018-11-29T11:20:11.796Z,15
2018-11-29T11:25:12.463Z,15
2018-11-29T11:30:11.707Z,16
2018-11-29T11:35:18.739Z,16
2018-11-29T11:40:16.224Z,14
2018-11-29T11:45:11.924Z,14
2018-11-29T11:50:12.322Z,14
2018-11-29T11:55:18.676Z,16
2018-11-29T12:00:12.126Z,17
2018-11-29T12:05:11.675Z,15
2018-11-29T12:10:11.668Z,19
2018-11-29T12:15:12.403Z,18
2018-11-29T12:20:11.886Z,18
2018-11-29T12:25:13.883Z,18
2018-11-29T12:30:13.491Z,17
2018-11-29T12:35:11.489Z,15
2018-11-29T12:40:12.220Z,15
2018-11-29T12:45:12.664Z,18
2018-11-29T12:50:13.261Z,17
2018-11-29T12:55:13.786Z,17
2018-11-29T13:00:13.067Z,15
2018-11-29T13:05:16.207Z,17
2018-11-29T13:10:11.917Z,23
2018-11-29T13:15:11.831Z,14
2018-11-29T13:20:12.160Z,19
2018-11-29T13:25:11.823Z,19
2018-11-29T13:30:11.672Z,17
2018-11-29T13:35:13.920Z,17
2018-11-29T13:40:12.777Z,20
2018-11-29T13:45:11.839Z,18
2018-11-29T13:50:14.071Z,18
2018-11-29T13:55:14.184Z,18
2018-11-29T14:00:13.604Z,15
2018-11-29T14:05:13.191Z,15
2018-11-29T14:10:14.196Z,18
2018-11-29T14:15:13.115Z,17
2018-11-29T14:20:18.531Z,17
2018-11-29T14:25:12.477Z,17
2018-11-29T14:30:15.341Z,14
2018-11-29T14:35:16.026Z,15
2018-11-29T14:40:13.240Z,17
2018-11-29T14:45:13.543Z,15
2018-11-29T14:50:11.732Z,17
2018-11-29T14:55:11.796Z,17
2018-11-29T15:00:14.878Z,22
2018-11-29T15:05:14.255Z,22
2018-11-29T15:10:26.744Z,17
2018-11-29T15:15:11.570Z,12
2018-11-29T15:20:27.623Z,18
2018-11-29T15:25:12.480Z,12
2018-11-29T15:30:11.672Z,15
2018-11-29T15:35:11.951Z,11
2018-11-29T15:40:11.840Z,14
2018-11-29T15:45:11.771Z,15
2018-11-29T15:50:12.003Z,13
2018-11-29T15:55:11.433Z,12
2018-11-29T16:00:12.598Z,12
2018-11-29T16:05:11.944Z,15
2018-11-29T16:10:12.531Z,13
2018-11-29T16:15:12.829Z,15
2018-11-29T16:20:13.525Z,15
2018-11-29T16:25:11.969Z,15
2018-11-29T16:30:11.884Z,16
2018-11-29T16:35:12.013Z,16
2018-11-29T16:40:11.691Z,16
2018-11-29T16:45:13.627Z,15
2018-11-29T16:50:33.168Z,15
2018-11-29T16:55:11.708Z,15
2018-11-29T17:00:12.961Z,10
2018-11-29T17:05:11.699Z,15
2018-11-29T17:10:11.274Z,15
2018-11-29T17:15:11.540Z,15
2018-11-29T17:20:14.187Z,12
2018-11-29T17:25:15.305Z,13
2018-11-29T17:30:11.858Z,6
2018-11-29T17:35:11.556Z,13
2018-11-29T17:40:11.913Z,11
2018-11-29T17:45:11.232Z,18
2018-11-29T17:50:12.154Z,13
2018-11-29T17:55:11.879Z,12
2018-11-29T18:00:11.500Z,14
2018-11-29T18:05:11.721Z,15
2018-11-29T18:10:13.893Z,12
2018-11-29T18:15:11.172Z,12
2018-11-29T18:20:11.416Z,13
2018-11-29T18:25:11.677Z,13
2018-11-29T18:30:11.467Z,13
2018-11-29T18:35:11.532Z,14
2018-11-29T18:40:11.048Z,13
2018-11-29T18:45:10.919Z,15
2018-11-29T18:50:11.820Z,15
2018-11-29T18:55:11.353Z,12
2018-11-29T19:00:11.955Z,18
2018-11-29T19:05:12.268Z,18
2018-11-29T19:10:12.201Z,15
2018-11-29T19:15:11.624Z,17
2018-11-29T19:20:11.462Z,17
2018-11-29T19:25:26.058Z,18
2018-11-29T19:30:11.300Z,14
2018-11-29T19:35:11.626Z,14
2018-11-29T19:40:11.714Z,12
2018-11-29T19:45:12.241Z,14
2018-11-29T19:50:10.955Z,18
2018-11-29T19:55:11.910Z,17
2018-11-29T20:00:11.870Z,17
2018-11-29T20:05:12.045Z,13
2018-11-29T20:10:14.339Z,14
2018-11-29T20:15:11.082Z,18
2018-11-29T20:20:10.863Z,15
2018-11-29T20:25:10.986Z,15
2018-11-29T20:30:10.980Z,18
2018-11-29T20:35:11.105Z,18
2018-11-29T20:40:10.883Z,20
2018-11-29T20:45:10.986Z,18
2018-11-29T20:50:14.707Z,15
2018-11-29T20:55:11.028Z,13
2018-11-29T21:00:11.185Z,22
2018-11-29T21:05:10.861Z,18
2018-11-29T21:10:10.777Z,10
2018-11-29T21:15:10.771Z,16
2018-11-29T21:20:10.644Z,14
2018-11-29T21:25:10.794Z,17
2018-11-29T21:30:11.360Z,17
2018-11-29T21:35:11.051Z,18
2018-11-29T21:40:11.201Z,16
2018-11-29T21:45:11.215Z,15
2018-11-29T21:50:11.010Z,15
2018-11-29T21:55:10.611Z,16
2018-11-29T22:00:11.004Z,15
2018-11-29T22:05:10.764Z,14
2018-11-29T22:10:10.842Z,15
2018-11-29T22:15:10.678Z,15
2018-11-29T22:20:55.621Z,16
2018-11-29T22:25:11.603Z,16
2018-11-29T22:30:11.628Z,13
2018-11-29T22:35:11.237Z,16
2018-11-29T22:40:11.421Z,14
2018-11-29T22:45:10.922Z,15
2018-11-29T22:50:11.083Z,13
2018-11-29T22:55:10.936Z,13
2018-11-29T23:00:11.138Z,13
2018-11-29T23:05:10.658Z,16
2018-11-29T23:10:10.937Z,18
2018-11-29T23:15:10.863Z,17
2018-11-29T23:20:10.485Z,15
2018-11-29T23:25:10.605Z,14
2018-11-29T23:30:10.778Z,16
2018-11-29T23:35:10.395Z,15
2018-11-29T23:40:10.610Z,15
2018-11-29T23:45:10.421Z,15
2018-11-29T23:50:10.842Z,15
2018-11-29T23:55:10.431Z,16
